Time;durP1;ratioP1;P1;durP2;ratioP2;P2;SDS_P1;SDS_P2;PMS_P1;PMS_P2;Temp;Humidity;BMP_temperature;BMP_pressure;BME280_temperature;BME280_humidity;BME280_pressure;Samples;Min_cycle;Max_cycle;Signal;HPM_P1;HPM_P2
2023/09/25 00:00:43;;;;;;;4.60;1.90;;;11.90;99.90;;;;;;5080324;28;20203;-89
2023/09/25 00:03:09;;;;;;;2.33;1.90;;;12.00;99.90;;;;;;5063184;28;20212;-89
2023/09/25 00:05:35;;;;;;;2.70;2.07;;;12.00;99.90;;;;;;5079922;28;21011;-89
2023/09/25 00:08:01;;;;;;;2.53;1.60;;;12.00;99.90;;;;;;5070284;28;20207;-89
2023/09/25 00:10:26;;;;;;;4.77;2.27;;;12.00;99.90;;;;;;5063246;28;20233;-89
2023/09/25 00:12:52;;;;;;;5.43;1.90;;;12.10;99.90;;;;;;5063462;28;20671;-88
2023/09/25 00:15:18;;;;;;;4.97;2.30;;;12.10;99.90;;;;;;5079996;28;20191;-90
2023/09/25 00:17:43;;;;;;;4.83;2.30;;;12.10;99.90;;;;;;5097983;28;20406;-89
2023/09/25 00:20:14;;;;;;;3.40;1.80;;;12.10;99.90;;;;;;5097466;28;20168;-89
2023/09/25 00:22:41;;;;;;;3.20;2.10;;;12.10;99.90;;;;;;5079520;28;20223;-89
2023/09/25 00:25:08;;;;;;;2.77;1.67;;;12.10;99.90;;;;;;5079222;28;20568;-89
2023/09/25 00:27:34;;;;;;;4.60;1.77;;;12.10;99.90;;;;;;5062679;28;20426;-89
2023/09/25 00:30:00;;;;;;;2.03;1.83;;;12.10;99.90;;;;;;5097661;28;20443;-90
2023/09/25 00:32:27;;;;;;;2.73;1.63;;;12.20;99.90;;;;;;5079615;28;20421;-90
2023/09/25 00:34:53;;;;;;;1.97;1.43;;;12.40;99.90;;;;;;5097627;28;20424;-89
2023/09/25 00:37:19;;;;;;;4.53;1.73;;;12.40;99.90;;;;;;5099419;28;20410;-90
2023/09/25 00:39:45;;;;;;;2.03;1.50;;;12.50;99.90;;;;;;5100280;28;20914;-90
2023/09/25 00:42:11;;;;;;;1.70;1.60;;;12.60;99.90;;;;;;5102748;28;20826;-90
2023/09/25 00:44:37;;;;;;;1.87;1.23;;;12.60;99.90;;;;;;5065540;28;20429;-89
2023/09/25 00:47:04;;;;;;;2.20;1.50;;;12.70;99.90;;;;;;5062496;28;20660;-90
2023/09/25 00:49:31;;;;;;;1.80;1.70;;;12.70;99.90;;;;;;5097217;28;20263;-89
2023/09/25 00:51:58;;;;;;;3.10;1.17;;;12.70;99.90;;;;;;5097552;28;20400;-89
2023/09/25 00:54:24;;;;;;;2.20;1.70;;;12.70;99.90;;;;;;5097414;28;20854;-91
2023/09/25 00:56:50;;;;;;;3.47;1.50;;;12.70;99.90;;;;;;5097858;28;20405;-90
2023/09/25 00:59:17;;;;;;;2.90;1.27;;;12.70;99.90;;;;;;5078682;28;20425;-90
2023/09/25 01:01:43;;;;;;;3.70;1.90;;;12.70;99.90;;;;;;5079285;28;20824;-89
2023/09/25 01:04:09;;;;;;;1.67;1.30;;;12.80;99.90;;;;;;5078552;28;20406;-91
2023/09/25 01:06:35;;;;;;;2.00;1.60;;;12.70;99.90;;;;;;5096975;28;20564;-89
2023/09/25 01:09:00;;;;;;;2.57;1.67;;;12.60;99.90;;;;;;5062286;28;20454;-89
2023/09/25 01:11:28;;;;;;;3.03;1.60;;;12.50;99.90;;;;;;5078766;28;20433;-90
2023/09/25 01:13:53;;;;;;;1.40;1.20;;;12.50;99.90;;;;;;5078957;28;20180;-86
2023/09/25 01:16:21;;;;;;;2.93;1.57;;;12.50;99.90;;;;;;5078804;28;20440;-90
2023/09/25 01:18:47;;;;;;;2.07;1.63;;;12.40;99.90;;;;;;5079188;28;20179;-90
2023/09/25 01:21:12;;;;;;;2.70;1.97;;;12.50;99.90;;;;;;5078950;28;20406;-90
2023/09/25 01:23:38;;;;;;;1.90;1.63;;;12.40;99.90;;;;;;5097166;28;20480;-89
2023/09/25 01:26:04;;;;;;;1.93;1.60;;;12.40;99.90;;;;;;5062026;28;20227;-90
2023/09/25 01:28:30;;;;;;;6.40;1.77;;;12.30;99.90;;;;;;5062435;28;20181;-90
2023/09/25 01:30:56;;;;;;;8.87;2.13;;;12.30;99.90;;;;;;5061399;28;20437;-89
2023/09/25 01:33:22;;;;;;;2.10;1.60;;;12.30;99.90;;;;;;5061944;28;20278;-90
2023/09/25 01:35:47;;;;;;;2.60;1.57;;;12.30;99.90;;;;;;5093883;28;20180;-90
2023/09/25 01:38:13;;;;;;;2.90;1.50;;;12.20;99.90;;;;;;5076556;28;20422;-90
2023/09/25 01:40:39;;;;;;;3.60;1.60;;;12.10;99.90;;;;;;5042263;28;20209;-90
2023/09/25 01:43:04;;;;;;;3.03;1.90;;;12.10;99.90;;;;;;5058251;28;20255;-89
2023/09/25 01:45:30;;;;;;;3.53;1.90;;;12.10;99.90;;;;;;5058155;28;20261;-90
2023/09/25 01:47:56;;;;;;;3.57;1.80;;;12.10;99.90;;;;;;5041437;28;20201;-86
2023/09/25 01:50:24;;;;;;;3.60;1.57;;;12.00;99.90;;;;;;5076112;28;20173;-90
2023/09/25 01:53:01;;;;;;;3.63;1.70;;;12.00;99.90;;;;;;5076376;28;20460;-90
2023/09/25 01:55:31;;;;;;;2.00;1.80;;;11.90;99.90;;;;;;5058279;28;20430;-90
2023/09/25 01:57:57;;;;;;;5.63;1.90;;;11.90;99.90;;;;;;5076109;28;20415;-89
2023/09/25 02:00:23;;;;;;;5.77;1.90;;;11.80;99.90;;;;;;5041394;28;20450;-90
2023/09/25 02:02:49;;;;;;;2.70;1.50;;;11.80;99.90;;;;;;5075033;28;20185;-90
2023/09/25 02:05:15;;;;;;;3.93;1.80;;;11.70;99.90;;;;;;5075753;28;20205;-90
2023/09/25 02:07:40;;;;;;;3.03;1.93;;;11.60;99.90;;;;;;5075728;28;20184;-90
2023/09/25 02:10:07;;;;;;;2.40;1.80;;;11.50;99.90;;;;;;5075498;28;20907;-90
2023/09/25 02:12:33;;;;;;;2.30;1.83;;;11.50;99.90;;;;;;5057858;28;20430;-89
2023/09/25 02:15:00;;;;;;;3.43;1.80;;;11.50;99.90;;;;;;5075559;28;20420;-89
2023/09/25 02:17:27;;;;;;;2.13;1.90;;;11.40;99.90;;;;;;5075811;28;20173;-90
2023/09/25 02:19:54;;;;;;;3.35;2.00;;;11.30;99.90;;;;;;5057632;28;20445;-90
2023/09/25 02:22:19;;;;;;;5.60;2.03;;;11.20;99.90;;;;;;5057416;28;20255;-90
2023/09/25 02:24:45;;;;;;;2.23;1.87;;;11.10;99.90;;;;;;5074958;28;20502;-90
2023/09/25 02:27:11;;;;;;;2.77;1.60;;;11.10;99.90;;;;;;5074933;28;20445;-89
2023/09/25 02:29:36;;;;;;;5.17;2.17;;;11.10;99.90;;;;;;5058944;28;20180;-90
2023/09/25 02:32:02;;;;;;;5.80;2.47;;;11.00;99.90;;;;;;5060936;28;20543;-89
2023/09/25 02:34:27;;;;;;;3.40;2.43;;;11.10;99.90;;;;;;5061364;28;20190;-90
2023/09/25 02:36:53;;;;;;;3.10;1.80;;;11.10;99.90;;;;;;5077309;28;20637;-90
2023/09/25 02:39:18;;;;;;;3.60;2.00;;;11.00;99.90;;;;;;5077321;28;20229;-89
2023/09/25 02:41:44;;;;;;;4.03;2.10;;;11.00;99.90;;;;;;5077469;28;20556;-90
2023/09/25 02:44:10;;;;;;;3.57;2.23;;;10.90;99.90;;;;;;5060369;28;20264;-90
2023/09/25 02:46:36;;;;;;;3.58;1.83;;;10.80;99.90;;;;;;5077678;28;20218;-90
2023/09/25 02:49:01;;;;;;;3.37;2.30;;;10.70;99.90;;;;;;5094870;28;20176;-89
2023/09/25 02:51:27;;;;;;;3.87;2.00;;;10.60;99.90;;;;;;5077508;28;20539;-90
2023/09/25 02:53:53;;;;;;;5.13;2.20;;;10.50;99.90;;;;;;5084015;28;20209;-89
2023/09/25 02:56:18;;;;;;;4.23;2.57;;;10.50;99.90;;;;;;5082384;28;20180;-90
2023/09/25 02:58:45;;;;;;;4.70;2.20;;;10.50;99.90;;;;;;5085060;28;20180;-90
2023/09/25 03:01:10;;;;;;;2.80;2.53;;;10.40;99.90;;;;;;5095462;28;20218;-89
2023/09/25 03:03:36;;;;;;;5.33;2.90;;;10.40;99.90;;;;;;5077177;28;20207;-89
2023/09/25 03:06:02;;;;;;;2.37;2.10;;;10.30;99.90;;;;;;5077339;28;20271;-88
2023/09/25 03:08:27;;;;;;;3.27;2.57;;;10.30;99.90;;;;;;5079683;28;20210;-89
2023/09/25 03:10:53;;;;;;;2.93;1.93;;;10.30;99.90;;;;;;5062321;28;20190;-90
2023/09/25 03:13:18;;;;;;;3.50;1.93;;;10.30;99.90;;;;;;5061745;28;20237;-89
2023/09/25 03:15:44;;;;;;;6.10;2.87;;;10.30;99.90;;;;;;5061134;28;20594;-89
2023/09/25 03:18:11;;;;;;;2.20;2.00;;;10.30;99.90;;;;;;5077018;28;20191;-89
2023/09/25 03:20:38;;;;;;;5.32;2.35;;;10.30;99.90;;;;;;5095071;28;20176;-89
2023/09/25 03:23:04;;;;;;;3.55;2.70;;;10.20;99.90;;;;;;5059949;28;20232;-88
2023/09/25 03:25:37;;;;;;;4.90;2.67;;;10.20;99.90;;;;;;5076113;28;20223;-89
2023/09/25 03:28:03;;;;;;;5.40;2.75;;;10.20;99.90;;;;;;5094775;28;20444;-88
2023/09/25 03:30:29;;;;;;;3.77;2.43;;;10.10;99.90;;;;;;5060566;28;20574;-89
2023/09/25 03:32:55;;;;;;;3.65;2.60;;;10.00;99.90;;;;;;5060451;28;20414;-89
2023/09/25 03:35:24;;;;;;;6.07;2.60;;;10.00;99.90;;;;;;5076704;28;20213;-89
2023/09/25 03:37:49;;;;;;;3.95;2.83;;;10.00;99.90;;;;;;5094688;28;20168;-89
2023/09/25 03:40:15;;;;;;;6.73;2.73;;;9.90;99.90;;;;;;5077185;28;20531;-89
2023/09/25 03:42:41;;;;;;;4.00;2.67;;;9.90;99.90;;;;;;5076401;28;20414;-89
2023/09/25 03:45:07;;;;;;;5.20;2.67;;;9.90;99.90;;;;;;5076441;28;20345;-89
2023/09/25 03:47:34;;;;;;;4.78;2.42;;;9.90;99.90;;;;;;5094829;28;20541;-89
2023/09/25 03:50:01;;;;;;;3.63;2.63;;;9.90;99.90;;;;;;5094683;28;20199;-89
2023/09/25 03:52:27;;;;;;;2.50;2.20;;;9.90;99.90;;;;;;5092866;28;20196;-89
2023/09/25 03:54:52;;;;;;;4.43;2.55;;;9.90;99.90;;;;;;5076272;28;20180;-89
2023/09/25 03:57:18;;;;;;;4.03;2.43;;;9.90;99.90;;;;;;5094362;28;20176;-89
2023/09/25 03:59:44;;;;;;;4.03;2.40;;;9.90;99.90;;;;;;5059537;28;20180;-88
2023/09/25 04:02:09;;;;;;;3.00;2.63;;;9.90;99.90;;;;;;5076300;28;20237;-89
2023/09/25 04:04:35;;;;;;;6.40;3.37;;;9.90;99.90;;;;;;5076471;28;20216;-89
2023/09/25 04:07:00;;;;;;;4.90;3.10;;;9.90;99.90;;;;;;5059391;28;20195;-89
2023/09/25 04:09:26;;;;;;;3.40;2.93;;;9.90;99.90;;;;;;5075944;28;20176;-89
2023/09/25 04:11:51;;;;;;;4.10;3.70;;;9.90;99.90;;;;;;5059848;28;20214;-89
2023/09/25 04:14:17;;;;;;;5.03;4.07;;;9.90;99.90;;;;;;5072093;28;20191;-89
2023/09/25 04:16:43;;;;;;;4.13;3.40;;;9.90;99.90;;;;;;5080545;28;20189;-89
2023/09/25 04:19:08;;;;;;;4.20;3.80;;;9.90;99.90;;;;;;5074393;28;20262;-89
2023/09/25 04:21:34;;;;;;;8.87;4.27;;;9.90;99.90;;;;;;5068434;28;20245;-89
2023/09/25 04:24:03;;;;;;;4.60;3.90;;;9.90;99.90;;;;;;5056174;28;20233;-89
2023/09/25 04:26:29;;;;;;;4.07;3.65;;;9.90;99.90;;;;;;5076490;28;20240;-90
2023/09/25 04:28:55;;;;;;;5.53;4.13;;;10.00;99.90;;;;;;5077659;28;20575;-89
2023/09/25 04:31:21;;;;;;;8.15;3.65;;;10.00;99.90;;;;;;5059604;28;20418;-89
2023/09/25 04:33:46;;;;;;;3.97;3.37;;;10.00;99.90;;;;;;5077441;28;20209;-89
2023/09/25 04:36:12;;;;;;;4.70;3.50;;;10.00;99.90;;;;;;5058947;28;20688;-89
2023/09/25 04:38:38;;;;;;;4.50;3.07;;;10.00;99.90;;;;;;5059430;28;20254;-89
2023/09/25 04:41:04;;;;;;;6.00;4.17;;;10.00;99.90;;;;;;5059761;28;20407;-89
2023/09/25 04:43:32;;;;;;;6.70;3.53;;;10.00;99.90;;;;;;5072453;28;20488;-89
2023/09/25 04:45:58;;;;;;;8.60;3.40;;;10.00;99.90;;;;;;5059889;28;20209;-89
2023/09/25 04:48:24;;;;;;;4.70;3.40;;;10.10;99.90;;;;;;5076812;28;20634;-89
2023/09/25 04:50:50;;;;;;;8.68;3.42;;;10.10;99.90;;;;;;5076897;28;20185;-88
2023/09/25 04:53:15;;;;;;;6.17;3.30;;;10.00;99.90;;;;;;5042306;28;20545;-88
2023/09/25 04:55:41;;;;;;;4.53;3.60;;;10.00;99.90;;;;;;5076861;28;20765;-88
2023/09/25 04:58:07;;;;;;;6.23;4.00;;;10.00;99.90;;;;;;5060246;28;20177;-87
2023/09/25 05:00:33;;;;;;;4.75;3.30;;;10.10;99.90;;;;;;5079150;28;20180;-89
2023/09/25 05:03:00;;;;;;;4.10;3.63;;;10.00;99.90;;;;;;5079219;28;20654;-89
2023/09/25 05:05:26;;;;;;;5.00;3.78;;;10.10;99.90;;;;;;5080725;28;20549;-89
2023/09/25 05:07:55;;;;;;;5.65;3.35;;;10.10;99.90;;;;;;5086609;28;20248;-89
2023/09/25 05:10:25;;;;;;;4.75;3.30;;;10.10;99.90;;;;;;5098054;28;20207;-89
2023/09/25 05:12:52;;;;;;;5.32;3.20;;;10.10;99.90;;;;;;5078646;28;21446;-88
2023/09/25 05:15:18;;;;;;;6.55;2.90;;;10.10;99.90;;;;;;5078398;28;20223;-88
2023/09/25 05:17:45;;;;;;;8.10;3.83;;;10.10;99.90;;;;;;5097092;28;20173;-89
2023/09/25 05:20:16;;;;;;;4.75;3.05;;;10.10;99.90;;;;;;5078783;28;20665;-88
2023/09/25 05:22:44;;;;;;;3.90;3.40;;;10.10;99.90;;;;;;5078223;28;20220;-88
2023/09/25 05:25:11;;;;;;;6.30;3.10;;;10.10;99.90;;;;;;5061158;28;20899;-88
2023/09/25 05:27:39;;;;;;;3.45;2.75;;;10.10;99.90;;;;;;5096583;28;20188;-89
2023/09/25 05:30:09;;;;;;;4.40;3.67;;;10.10;99.90;;;;;;5096354;28;20533;-89
2023/09/25 05:32:35;;;;;;;5.38;3.42;;;10.10;99.90;;;;;;5073091;28;20516;-89
2023/09/25 05:35:01;;;;;;;6.10;3.45;;;10.00;99.90;;;;;;5098810;28;20187;-89
2023/09/25 05:37:26;;;;;;;6.17;3.83;;;10.10;99.90;;;;;;5098659;28;20183;-89
2023/09/25 05:39:52;;;;;;;7.00;3.37;;;10.10;99.90;;;;;;5100050;28;20186;-89
2023/09/25 05:42:17;;;;;;;6.73;3.00;;;10.10;99.90;;;;;;5083668;28;20233;-88
2023/09/25 05:44:43;;;;;;;5.50;3.30;;;10.10;99.90;;;;;;5100206;28;20270;-89
2023/09/25 05:47:08;;;;;;;8.50;3.80;;;10.20;99.90;;;;;;5099516;28;20660;-89
2023/09/25 05:49:34;;;;;;;3.30;3.00;;;10.10;99.90;;;;;;5103280;28;20188;-88
2023/09/25 05:52:00;;;;;;;5.70;3.40;;;10.10;99.90;;;;;;5118361;28;20187;-89
2023/09/25 05:54:25;;;;;;;3.50;3.03;;;10.30;99.90;;;;;;5082456;28;20183;-89
2023/09/25 05:56:51;;;;;;;6.77;3.40;;;10.30;99.90;;;;;;5118112;28;20186;-88
2023/09/25 05:59:16;;;;;;;4.77;3.73;;;10.30;99.90;;;;;;5108418;28;20180;-89
2023/09/25 06:01:42;;;;;;;5.53;2.63;;;10.40;99.90;;;;;;5063300;28;20215;-89
2023/09/25 06:04:09;;;;;;;6.50;3.55;;;10.40;99.90;;;;;;5080011;28;20210;-89
2023/09/25 06:06:35;;;;;;;4.03;3.40;;;10.40;99.90;;;;;;5079096;28;20556;-88
2023/09/25 06:09:01;;;;;;;5.37;3.20;;;10.50;99.90;;;;;;5062573;28;20243;-89
2023/09/25 06:11:27;;;;;;;5.25;3.83;;;10.50;99.90;;;;;;5097218;28;20805;-89
2023/09/25 06:13:53;;;;;;;6.60;3.83;;;10.60;99.90;;;;;;5078803;28;20188;-90
2023/09/25 06:16:18;;;;;;;4.43;3.77;;;10.70;99.90;;;;;;5079399;28;20191;-89
2023/09/25 06:18:44;;;;;;;8.47;3.80;;;10.80;99.90;;;;;;5078872;28;20184;-89
2023/09/25 06:21:13;;;;;;;8.23;4.17;;;10.90;99.90;;;;;;5059045;28;20192;-89
2023/09/25 06:23:39;;;;;;;7.23;4.20;;;10.90;99.90;;;;;;5076947;28;20450;-89
2023/09/25 06:26:06;;;;;;;5.50;3.83;;;11.00;99.90;;;;;;5071999;28;20573;-89
2023/09/25 06:28:32;;;;;;;8.43;3.80;;;11.10;99.90;;;;;;5078257;28;20410;-90
2023/09/25 06:30:58;;;;;;;5.57;3.37;;;11.10;99.90;;;;;;5062040;28;20427;-90
2023/09/25 06:33:25;;;;;;;5.73;3.40;;;11.20;99.90;;;;;;5078091;28;20461;-90
2023/09/25 06:35:51;;;;;;;9.03;4.57;;;11.40;99.90;;;;;;5062414;28;20433;-90
2023/09/25 06:38:17;;;;;;;7.13;3.83;;;11.60;99.90;;;;;;5097032;28;20861;-90
2023/09/25 06:40:46;;;;;;;7.03;3.80;;;11.70;99.90;;;;;;5062933;28;20550;-89
2023/09/25 06:43:12;;;;;;;5.70;3.30;;;11.90;99.90;;;;;;5079362;28;20210;-93
2023/09/25 06:45:41;;;;;;;4.37;3.53;;;11.90;99.90;;;;;;5079842;28;21053;-92
2023/09/25 06:48:07;;;;;;;8.97;3.27;;;12.00;99.90;;;;;;5063142;28;20414;-92
2023/09/25 06:50:33;;;;;;;4.70;3.60;;;12.10;99.90;;;;;;5066150;28;20425;-92
2023/09/25 06:52:59;;;;;;;5.93;3.47;;;12.20;99.90;;;;;;5084074;28;20433;-92
2023/09/25 06:55:25;;;;;;;5.40;3.17;;;12.20;99.90;;;;;;5083213;28;20419;-92
2023/09/25 06:57:51;;;;;;;6.53;3.63;;;12.30;99.90;;;;;;5098452;28;20414;-92
2023/09/25 07:00:18;;;;;;;5.13;3.40;;;12.40;99.90;;;;;;5077737;28;20612;-91
2023/09/25 07:02:43;;;;;;;5.53;3.50;;;12.50;99.90;;;;;;5086969;28;20510;-91
2023/09/25 07:05:10;;;;;;;6.27;3.70;;;12.60;99.90;;;;;;5088571;28;20516;-91
2023/09/25 07:07:39;;;;;;;6.43;3.20;;;12.70;99.90;;;;;;5079123;28;20453;-92
2023/09/25 07:10:09;;;;;;;7.53;3.40;;;12.80;99.90;;;;;;5062922;28;20414;-92
2023/09/25 07:12:35;;;;;;;5.20;3.20;;;13.00;99.90;;;;;;5079823;28;20885;-91
2023/09/25 07:15:02;;;;;;;4.27;2.90;;;13.10;99.90;;;;;;5082643;28;20407;-92
2023/09/25 07:17:28;;;;;;;6.60;3.23;;;13.10;99.90;;;;;;5086208;28;20172;-92
2023/09/25 07:19:57;;;;;;;5.63;2.80;;;13.20;99.90;;;;;;5100267;28;20436;-92
2023/09/25 07:22:27;;;;;;;4.70;2.57;;;13.20;99.90;;;;;;5058486;28;20509;-92
2023/09/25 07:24:53;;;;;;;2.57;2.10;;;13.20;99.90;;;;;;5042321;28;20467;-92
2023/09/25 07:27:19;;;;;;;5.47;2.20;;;13.30;99.90;;;;;;5076275;28;20814;-91
2023/09/25 07:29:45;;;;;;;3.33;2.23;;;13.40;99.90;;;;;;5041576;28;20423;-91
2023/09/25 07:32:11;;;;;;;2.33;2.00;;;13.50;99.90;;;;;;5059751;28;20234;-92
2023/09/25 07:34:38;;;;;;;3.67;2.13;;;13.60;99.90;;;;;;5058265;28;20487;-92
2023/09/25 07:37:05;;;;;;;6.40;2.07;;;13.60;99.90;;;;;;5041722;28;20423;-92
2023/09/25 07:39:33;;;;;;;3.33;1.90;;;13.70;99.90;;;;;;5042260;28;20427;-92
2023/09/25 07:41:59;;;;;;;3.77;2.17;;;13.90;99.90;;;;;;5058877;28;20442;-89
2023/09/25 07:44:27;;;;;;;3.50;2.40;;;14.00;99.90;;;;;;5041587;28;20423;-92
2023/09/25 07:46:57;;;;;;;4.73;2.30;;;14.00;99.90;;;;;;5042833;28;20217;-92
2023/09/25 07:49:23;;;;;;;3.10;2.40;;;14.10;99.90;;;;;;5075843;28;20411;-92
2023/09/25 07:51:51;;;;;;;2.40;2.20;;;14.20;99.90;;;;;;5025643;28;20431;-93
2023/09/25 07:54:17;;;;;;;4.13;2.60;;;14.30;99.90;;;;;;5043283;28;20423;-90
2023/09/25 07:56:43;;;;;;;2.60;1.90;;;14.50;99.90;;;;;;5042087;28;20445;-92
2023/09/25 07:59:10;;;;;;;6.03;2.80;;;14.50;99.90;;;;;;5061476;28;20426;-92
2023/09/25 08:01:39;;;;;;;3.50;2.40;;;14.70;99.90;;;;;;5081965;28;20418;-92
2023/09/25 08:04:05;;;;;;;3.77;2.50;;;14.90;99.90;;;;;;5082923;28;20417;-92
2023/09/25 08:06:30;;;;;;;2.63;1.90;;;14.90;99.90;;;;;;5082291;28;20452;-92
2023/09/25 08:08:57;;;;;;;4.40;2.70;;;15.10;99.90;;;;;;5065628;28;20396;-92
2023/09/25 08:11:24;;;;;;;6.17;2.40;;;15.20;99.90;;;;;;5081670;28;20187;-92
2023/09/25 08:13:50;;;;;;;3.43;3.03;;;15.30;99.90;;;;;;5082263;28;20524;-92
2023/09/25 08:16:18;;;;;;;6.90;2.40;;;15.30;99.90;;;;;;5082229;28;20406;-92
2023/09/25 08:18:44;;;;;;;5.03;2.47;;;15.40;99.90;;;;;;5064965;28;20396;-91
2023/09/25 08:21:10;;;;;;;4.83;3.10;;;15.50;99.90;;;;;;5099839;28;20406;-92
2023/09/25 08:23:35;;;;;;;5.27;2.80;;;15.80;99.90;;;;;;5065175;28;20977;-90
2023/09/25 08:26:05;;;;;;;4.30;2.53;;;15.90;99.90;;;;;;5064650;28;20489;-90
2023/09/25 08:28:31;;;;;;;6.07;2.90;;;16.00;99.90;;;;;;5099821;28;20176;-91
2023/09/25 08:30:57;;;;;;;5.43;2.57;;;16.10;99.90;;;;;;5081250;28;20445;-91
2023/09/25 08:33:22;;;;;;;5.80;2.70;;;16.20;99.90;;;;;;5064934;28;20417;-91
2023/09/25 08:35:48;;;;;;;5.43;2.70;;;16.20;99.90;;;;;;5082159;28;20180;-92
2023/09/25 08:38:14;;;;;;;4.00;2.40;;;16.40;99.90;;;;;;5081841;28;20247;-91
2023/09/25 08:40:47;;;;;;;8.33;2.70;;;16.60;99.90;;;;;;5071200;28;20232;-91
2023/09/25 08:43:13;;;;;;;3.83;2.20;;;16.70;99.90;;;;;;5081571;28;20184;-91
2023/09/25 08:45:40;;;;;;;2.80;1.90;;;17.00;99.90;;;;;;5081184;28;20997;-92
2023/09/25 08:48:07;;;;;;;4.03;2.00;;;17.20;99.90;;;;;;5082424;28;20423;-92
2023/09/25 08:50:34;;;;;;;3.20;2.23;;;17.40;99.90;;;;;;5082142;28;20413;-90
2023/09/25 08:53:00;;;;;;;6.03;2.27;;;17.60;99.90;;;;;;5081549;28;20402;-92
2023/09/25 08:55:26;;;;;;;3.37;1.80;;;18.00;99.90;;;;;;5080981;28;20410;-92
2023/09/25 08:57:52;;;;;;;3.80;2.20;;;18.20;99.90;;;;;;5064498;28;20180;-91
2023/09/25 09:00:18;;;;;;;2.47;1.97;;;18.40;99.90;;;;;;5064330;28;20433;-92
2023/09/25 09:02:45;;;;;;;3.00;1.70;;;18.60;99.90;;;;;;5081113;28;20389;-92
2023/09/25 09:05:12;;;;;;;3.73;1.97;;;18.80;99.90;;;;;;5099233;28;20615;-92
2023/09/25 09:07:57;;;;;;;5.43;2.20;;;19.10;99.90;;;;;;5080462;28;20289;-92
2023/09/25 09:10:22;;;;;;;2.93;1.80;;;19.30;99.90;;;;;;5098837;28;20420;-88
2023/09/25 09:12:55;;;;;;;3.60;1.83;;;19.10;99.90;;;;;;5080939;28;20403;-92
2023/09/25 09:15:26;;;;;;;2.70;1.40;;;19.40;99.90;;;;;;5098417;28;20184;-91
2023/09/25 09:17:52;;;;;;;3.30;1.80;;;19.50;99.90;;;;;;5063816;28;20437;-92
2023/09/25 09:20:19;;;;;;;3.10;1.60;;;19.30;99.90;;;;;;5080390;28;20418;-92
2023/09/25 09:22:51;;;;;;;6.60;1.60;;;19.60;99.90;;;;;;5116470;28;20568;-91
2023/09/25 09:25:20;;;;;;;3.53;1.57;;;20.00;99.90;;;;;;5095985;28;20493;-92
2023/09/25 09:27:46;;;;;;;2.77;1.73;;;20.40;99.90;;;;;;5089546;28;20740;-92
2023/09/25 09:30:23;;;;;;;1.97;1.60;;;20.60;99.90;;;;;;5082443;28;20422;-92
2023/09/25 09:32:52;;;;;;;2.70;1.80;;;20.60;99.90;;;;;;5099344;28;20201;-91
2023/09/25 09:35:24;;;;;;;2.80;2.33;;;21.30;99.90;;;;;;5060911;28;20439;-93
2023/09/25 09:37:55;;;;;;;2.50;1.80;;;21.50;99.90;;;;;;5078284;28;20465;-92
2023/09/25 09:40:25;;;;;;;1.93;1.40;;;22.00;99.90;;;;;;5097816;28;20418;-92
2023/09/25 09:42:52;;;;;;;3.80;1.60;;;21.80;99.90;;;;;;5077641;28;21650;-92
2023/09/25 09:45:19;;;;;;;2.23;1.67;;;21.50;99.90;;;;;;5059853;28;20463;-92
2023/09/25 09:47:46;;;;;;;3.43;1.70;;;21.40;99.90;;;;;;5078418;28;20416;-92
2023/09/25 09:50:17;;;;;;;3.30;1.93;;;21.90;99.90;;;;;;5043296;28;20419;-92
2023/09/25 09:52:44;;;;;;;4.33;1.60;;;22.30;99.90;;;;;;5060181;28;20403;-92
2023/09/25 09:55:12;;;;;;;3.50;1.93;;;22.30;99.90;;;;;;5060274;28;20430;-93
2023/09/25 09:57:39;;;;;;;3.27;2.00;;;22.90;99.90;;;;;;5043601;28;20420;-92
2023/09/25 10:00:06;;;;;;;2.40;1.50;;;23.00;99.90;;;;;;5059641;28;20411;-92
2023/09/25 10:02:32;;;;;;;2.70;1.87;;;23.20;99.90;;;;;;5096513;28;20444;-91
2023/09/25 10:04:58;;;;;;;2.90;1.30;;;22.50;99.90;;;;;;5062662;28;20870;-92
2023/09/25 10:07:25;;;;;;;1.87;1.70;;;22.40;99.90;;;;;;5079926;28;20434;-92
2023/09/25 10:10:04;;;;;;;5.93;2.10;;;23.20;99.90;;;;;;5079431;28;20452;-93
2023/09/25 10:12:56;;;;;;;2.93;1.60;;;23.80;99.90;;;;;;5079350;28;20426;-93
2023/09/25 10:15:25;;;;;;;2.27;1.47;;;23.30;99.90;;;;;;5077555;28;20855;-93
2023/09/25 10:17:52;;;;;;;2.63;1.73;;;23.10;99.90;;;;;;5063511;28;20426;-93
2023/09/25 10:20:30;;;;;;;1.97;1.77;;;23.60;99.90;;;;;;5080646;28;20422;-92
2023/09/25 10:23:06;;;;;;;3.40;1.60;;;23.60;99.90;;;;;;5097318;28;21028;-92
2023/09/25 10:25:52;;;;;;;3.70;2.13;;;24.00;99.90;;;;;;5099051;28;20961;-91
2023/09/25 10:28:22;;;;;;;3.00;1.80;;;24.00;99.90;;;;;;5100726;28;20382;-92
2023/09/25 10:30:49;;;;;;;1.83;1.47;;;23.70;99.90;;;;;;5082854;28;20419;-89
2023/09/25 10:33:20;;;;;;;2.60;1.53;;;24.30;99.90;;;;;;5079792;28;20505;-92
2023/09/25 10:35:48;;;;;;;3.60;1.87;;;24.40;99.90;;;;;;5079360;28;20900;-92
2023/09/25 10:38:19;;;;;;;3.17;2.10;;;24.80;99.90;;;;;;5062607;28;20433;-92
2023/09/25 10:40:49;;;;;;;2.20;1.70;;;25.10;99.90;;;;;;5078888;28;20430;-91
2023/09/25 10:43:20;;;;;;;3.60;1.87;;;25.10;99.90;;;;;;5079171;28;20941;-92
2023/09/25 10:45:46;;;;;;;2.00;1.67;;;25.30;99.90;;;;;;5063476;28;21011;-92
2023/09/25 10:48:12;;;;;;;2.30;1.70;;;25.10;99.90;;;;;;5097248;28;20545;-91
2023/09/25 10:50:39;;;;;;;2.33;1.93;;;24.80;99.90;;;;;;5078002;28;20926;-91
2023/09/25 10:53:06;;;;;;;2.53;1.70;;;25.00;99.90;;;;;;5096926;28;20179;-91
2023/09/25 10:55:33;;;;;;;3.80;1.80;;;25.00;99.90;;;;;;5061402;28;20430;-90
2023/09/25 10:58:00;;;;;;;1.80;1.40;;;25.30;99.90;;;;;;5061586;28;20418;-90
2023/09/25 11:00:26;;;;;;;2.00;1.50;;;25.40;99.90;;;;;;5077968;28;20817;-92
2023/09/25 11:02:52;;;;;;;2.87;1.60;;;24.90;99.90;;;;;;5061317;28;20469;-92
2023/09/25 11:05:17;;;;;;;2.63;1.77;;;24.90;99.90;;;;;;5078052;28;20466;-91
2023/09/25 11:07:43;;;;;;;2.00;1.67;;;24.80;99.90;;;;;;5060719;28;20211;-92
2023/09/25 11:10:13;;;;;;;3.23;2.10;;;24.70;99.90;;;;;;5061370;28;20189;-91
2023/09/25 11:12:40;;;;;;;2.70;1.50;;;24.70;99.90;;;;;;5096274;28;20203;-92
2023/09/25 11:15:11;;;;;;;2.30;1.70;;;25.20;99.90;;;;;;5077481;28;20487;-91
2023/09/25 11:17:40;;;;;;;2.13;1.60;;;25.60;99.90;;;;;;5095752;28;20402;-91
2023/09/25 11:20:22;;;;;;;4.20;1.73;;;25.70;99.90;;;;;;5079265;28;20409;-91
2023/09/25 11:22:48;;;;;;;2.13;1.60;;;25.90;99.90;;;;;;5062881;28;20473;-91
2023/09/25 11:25:15;;;;;;;3.40;1.70;;;25.70;99.90;;;;;;5096257;28;20469;-91
2023/09/25 11:27:52;;;;;;;1.60;1.30;;;25.20;99.90;;;;;;5061333;28;20426;-91
2023/09/25 11:30:18;;;;;;;2.73;2.00;;;25.40;99.90;;;;;;5079393;28;20406;-91
2023/09/25 11:32:44;;;;;;;2.53;1.50;;;25.40;99.90;;;;;;5070997;28;21013;-91
2023/09/25 11:35:13;;;;;;;2.17;1.50;;;25.90;99.90;;;;;;5114405;28;20192;-92
2023/09/25 11:38:00;;;;;;;2.67;1.70;;;25.90;99.90;;;;;;5110901;28;20228;-92
2023/09/25 11:40:30;;;;;;;1.60;1.30;;;26.20;99.90;;;;;;5104019;28;20406;-91
2023/09/25 11:42:58;;;;;;;2.50;1.90;;;26.40;99.90;;;;;;5083585;28;20426;-92
2023/09/25 11:45:24;;;;;;;1.93;1.47;;;26.50;99.90;;;;;;5084070;28;20458;-91
2023/09/25 11:47:50;;;;;;;3.43;1.70;;;26.80;99.90;;;;;;5049968;28;20422;-91
2023/09/25 11:50:16;;;;;;;3.10;1.40;;;26.90;99.90;;;;;;5102313;28;20180;-91
2023/09/25 11:52:46;;;;;;;3.07;1.63;;;27.00;99.90;;;;;;5083854;28;20768;-91
2023/09/25 11:55:15;;;;;;;2.53;1.60;;;27.50;99.90;;;;;;5083828;28;20773;-91
2023/09/25 11:57:42;;;;;;;4.80;1.57;;;27.70;99.90;;;;;;5081364;28;20414;-91
2023/09/25 12:00:09;;;;;;;2.23;1.80;;;28.00;99.50;;;;;;5065487;28;20424;-92
2023/09/25 12:02:36;;;;;;;5.20;1.80;;;28.60;99.60;;;;;;5084551;28;20422;-91
2023/09/25 12:05:03;;;;;;;2.00;1.80;;;28.30;98.30;;;;;;5101101;28;20868;-92
2023/09/25 12:07:32;;;;;;;2.60;1.70;;;28.20;98.30;;;;;;5100627;28;20473;-92
2023/09/25 12:10:01;;;;;;;2.80;1.70;;;28.60;98.60;;;;;;5100562;28;20478;-91
2023/09/25 12:12:27;;;;;;;2.77;1.50;;;28.60;98.00;;;;;;5065975;28;20452;-92
2023/09/25 12:14:53;;;;;;;2.37;1.43;;;28.70;94.80;;;;;;5100826;28;20499;-92
2023/09/25 12:17:19;;;;;;;2.80;1.27;;;29.00;91.60;;;;;;5065383;28;20184;-92
2023/09/25 12:19:45;;;;;;;1.90;1.70;;;29.30;95.20;;;;;;5068300;28;20433;-91
2023/09/25 12:22:11;;;;;;;2.70;1.93;;;29.40;94.10;;;;;;5087803;28;20232;-93
2023/09/25 12:24:36;;;;;;;2.33;1.73;;;29.40;93.40;;;;;;5086945;28;20538;-90
2023/09/25 12:27:02;;;;;;;2.23;1.80;;;29.50;92.70;;;;;;5105162;28;20208;-91
2023/09/25 12:29:28;;;;;;;1.97;1.60;;;28.90;86.10;;;;;;5069825;28;20202;-92
2023/09/25 12:31:54;;;;;;;2.13;1.50;;;29.20;90.70;;;;;;5081712;28;20239;-92
2023/09/25 12:34:20;;;;;;;2.33;1.40;;;30.00;81.90;;;;;;5081359;28;20418;-92
2023/09/25 12:36:46;;;;;;;1.83;1.63;;;30.10;85.80;;;;;;5081083;28;20192;-92
2023/09/25 12:39:14;;;;;;;1.63;1.43;;;30.40;78.30;;;;;;5064702;28;20422;-93
2023/09/25 12:41:41;;;;;;;2.37;1.60;;;30.10;81.50;;;;;;5065276;28;20180;-92
2023/09/25 12:44:08;;;;;;;3.40;1.77;;;29.90;82.60;;;;;;5081989;28;20469;-92
2023/09/25 12:46:33;;;;;;;1.67;1.47;;;29.80;82.20;;;;;;5079761;28;20473;-92